sensor_id;sensor_type;location;lat;lon;timestamp;P1;durP1;ratioP1;P2;durP2;ratioP2
63882;SDS011;50047;50.596;30.466;2023-07-20T00:02:06;6.70;;;4.90;;
63882;SDS011;50047;50.596;30.466;2023-07-20T00:04:34;7.10;;;4.60;;
63882;SDS011;50047;50.596;30.466;2023-07-20T00:07:03;6.80;;;4.90;;
63882;SDS011;50047;50.596;30.466;2023-07-20T00:09:30;9.70;;;5.00;;
63882;SDS011;50047;50.596;30.466;2023-07-20T00:11:57;8.40;;;4.80;;
63882;SDS011;50047;50.596;30.466;2023-07-20T00:14:26;7.70;;;4.80;;
63882;SDS011;50047;50.596;30.466;2023-07-20T00:16:55;6.70;;;4.20;;
63882;SDS011;50047;50.596;30.466;2023-07-20T00:19:26;11.20;;;4.20;;
63882;SDS011;50047;50.596;30.466;2023-07-20T00:21:54;7.60;;;4.40;;
63882;SDS011;50047;50.596;30.466;2023-07-20T00:24:21;8.90;;;4.70;;
63882;SDS011;50047;50.596;30.466;2023-07-20T00:26:49;8.90;;;5.00;;
63882;SDS011;50047;50.596;30.466;2023-07-20T00:29:16;8.40;;;5.50;;
63882;SDS011;50047;50.596;30.466;2023-07-20T00:31:44;8.50;;;5.30;;
63882;SDS011;50047;50.596;30.466;2023-07-20T00:34:11;8.00;;;4.80;;
63882;SDS011;50047;50.596;30.466;2023-07-20T00:36:40;11.00;;;5.70;;
63882;SDS011;50047;50.596;30.466;2023-07-20T00:39:07;6.20;;;3.30;;
63882;SDS011;50047;50.596;30.466;2023-07-20T00:41:35;10.70;;;4.00;;
63882;SDS011;50047;50.596;30.466;2023-07-20T00:44:02;13.30;;;5.10;;
63882;SDS011;50047;50.596;30.466;2023-07-20T00:46:29;11.50;;;4.90;;
63882;SDS011;50047;50.596;30.466;2023-07-20T00:48:56;9.60;;;4.50;;
63882;SDS011;50047;50.596;30.466;2023-07-20T00:51:24;9.20;;;4.70;;
63882;SDS011;50047;50.596;30.466;2023-07-20T00:53:53;8.20;;;4.00;;
63882;SDS011;50047;50.596;30.466;2023-07-20T00:56:20;6.80;;;3.90;;
63882;SDS011;50047;50.596;30.466;2023-07-20T00:58:49;9.80;;;4.90;;
63882;SDS011;50047;50.596;30.466;2023-07-20T01:01:16;14.60;;;6.00;;
63882;SDS011;50047;50.596;30.466;2023-07-20T01:03:43;11.50;;;4.70;;
63882;SDS011;50047;50.596;30.466;2023-07-20T01:08:48;7.80;;;4.80;;
63882;SDS011;50047;50.596;30.466;2023-07-20T01:11:30;9.50;;;5.00;;
63882;SDS011;50047;50.596;30.466;2023-07-20T01:14:05;10.30;;;5.10;;
63882;SDS011;50047;50.596;30.466;2023-07-20T01:16:33;9.20;;;5.00;;
63882;SDS011;50047;50.596;30.466;2023-07-20T01:19:01;14.90;;;5.30;;
63882;SDS011;50047;50.596;30.466;2023-07-20T01:21:34;11.10;;;5.40;;
63882;SDS011;50047;50.596;30.466;2023-07-20T01:29:51;8.40;;;4.30;;
63882;SDS011;50047;50.596;30.466;2023-07-20T01:32:27;8.90;;;3.60;;
63882;SDS011;50047;50.596;30.466;2023-07-20T01:34:55;7.90;;;3.70;;
63882;SDS011;50047;50.596;30.466;2023-07-20T01:37:25;6.40;;;4.40;;
63882;SDS011;50047;50.596;30.466;2023-07-20T01:39:56;8.30;;;5.20;;
63882;SDS011;50047;50.596;30.466;2023-07-20T01:42:26;11.30;;;5.30;;
63882;SDS011;50047;50.596;30.466;2023-07-20T01:44:53;12.50;;;5.30;;
63882;SDS011;50047;50.596;30.466;2023-07-20T01:47:24;12.00;;;5.70;;
63882;SDS011;50047;50.596;30.466;2023-07-20T01:49:52;9.50;;;5.80;;
63882;SDS011;50047;50.596;30.466;2023-07-20T01:52:19;8.50;;;5.20;;
63882;SDS011;50047;50.596;30.466;2023-07-20T01:54:46;8.70;;;5.90;;
63882;SDS011;50047;50.596;30.466;2023-07-20T01:57:13;9.70;;;5.80;;
63882;SDS011;50047;50.596;30.466;2023-07-20T01:59:41;9.90;;;6.10;;
63882;SDS011;50047;50.596;30.466;2023-07-20T02:02:07;10.10;;;5.90;;
63882;SDS011;50047;50.596;30.466;2023-07-20T02:04:34;5.60;;;3.60;;
63882;SDS011;50047;50.596;30.466;2023-07-20T02:07:02;9.30;;;4.60;;
63882;SDS011;50047;50.596;30.466;2023-07-20T02:09:29;8.80;;;4.70;;
63882;SDS011;50047;50.596;30.466;2023-07-20T02:11:57;9.00;;;4.50;;
63882;SDS011;50047;50.596;30.466;2023-07-20T02:14:24;7.20;;;4.70;;
63882;SDS011;50047;50.596;30.466;2023-07-20T02:16:51;8.30;;;5.20;;
63882;SDS011;50047;50.596;30.466;2023-07-20T02:19:20;10.60;;;5.60;;
63882;SDS011;50047;50.596;30.466;2023-07-20T02:21:48;10.10;;;5.70;;
63882;SDS011;50047;50.596;30.466;2023-07-20T02:24:14;9.70;;;5.30;;
63882;SDS011;50047;50.596;30.466;2023-07-20T02:26:42;10.10;;;5.50;;
63882;SDS011;50047;50.596;30.466;2023-07-20T02:29:09;10.10;;;5.60;;
63882;SDS011;50047;50.596;30.466;2023-07-20T02:31:38;14.10;;;5.80;;
63882;SDS011;50047;50.596;30.466;2023-07-20T02:34:07;10.60;;;5.40;;
63882;SDS011;50047;50.596;30.466;2023-07-20T02:36:35;10.80;;;5.60;;
63882;SDS011;50047;50.596;30.466;2023-07-20T02:39:03;10.00;;;5.00;;
63882;SDS011;50047;50.596;30.466;2023-07-20T02:41:32;11.00;;;5.50;;
63882;SDS011;50047;50.596;30.466;2023-07-20T02:44:02;8.30;;;4.90;;
63882;SDS011;50047;50.596;30.466;2023-07-20T02:46:30;6.40;;;4.60;;
63882;SDS011;50047;50.596;30.466;2023-07-20T02:48:58;8.40;;;4.90;;
63882;SDS011;50047;50.596;30.466;2023-07-20T02:51:25;7.60;;;4.80;;
63882;SDS011;50047;50.596;30.466;2023-07-20T02:53:52;10.20;;;4.60;;
63882;SDS011;50047;50.596;30.466;2023-07-20T02:56:19;10.50;;;4.40;;
63882;SDS011;50047;50.596;30.466;2023-07-20T02:58:47;10.50;;;5.00;;
63882;SDS011;50047;50.596;30.466;2023-07-20T03:01:14;9.50;;;5.40;;
63882;SDS011;50047;50.596;30.466;2023-07-20T03:03:42;12.60;;;5.00;;
63882;SDS011;50047;50.596;30.466;2023-07-20T03:06:13;9.90;;;5.00;;
63882;SDS011;50047;50.596;30.466;2023-07-20T03:08:42;7.90;;;4.50;;
63882;SDS011;50047;50.596;30.466;2023-07-20T03:11:14;9.10;;;5.10;;
63882;SDS011;50047;50.596;30.466;2023-07-20T03:13:42;12.40;;;4.90;;
63882;SDS011;50047;50.596;30.466;2023-07-20T03:16:11;9.00;;;4.60;;
63882;SDS011;50047;50.596;30.466;2023-07-20T03:18:42;9.30;;;4.50;;
63882;SDS011;50047;50.596;30.466;2023-07-20T03:21:09;9.10;;;4.30;;
63882;SDS011;50047;50.596;30.466;2023-07-20T03:23:41;7.80;;;4.00;;
63882;SDS011;50047;50.596;30.466;2023-07-20T03:26:09;7.70;;;4.50;;
63882;SDS011;50047;50.596;30.466;2023-07-20T03:28:37;9.80;;;4.60;;
63882;SDS011;50047;50.596;30.466;2023-07-20T03:31:05;7.60;;;4.40;;
63882;SDS011;50047;50.596;30.466;2023-07-20T03:33:35;8.60;;;4.30;;
63882;SDS011;50047;50.596;30.466;2023-07-20T03:36:02;8.40;;;4.20;;
63882;SDS011;50047;50.596;30.466;2023-07-20T03:38:29;9.10;;;4.20;;
63882;SDS011;50047;50.596;30.466;2023-07-20T03:40:59;6.50;;;3.70;;
63882;SDS011;50047;50.596;30.466;2023-07-20T03:43:27;8.70;;;3.70;;
63882;SDS011;50047;50.596;30.466;2023-07-20T03:45:55;9.30;;;4.30;;
63882;SDS011;50047;50.596;30.466;2023-07-20T03:48:24;10.90;;;4.20;;
63882;SDS011;50047;50.596;30.466;2023-07-20T03:50:53;12.10;;;4.20;;
63882;SDS011;50047;50.596;30.466;2023-07-20T03:53:20;10.60;;;4.00;;
63882;SDS011;50047;50.596;30.466;2023-07-20T03:55:48;7.90;;;3.90;;
63882;SDS011;50047;50.596;30.466;2023-07-20T03:58:18;7.20;;;3.70;;
63882;SDS011;50047;50.596;30.466;2023-07-20T04:00:49;9.50;;;3.90;;
63882;SDS011;50047;50.596;30.466;2023-07-20T04:03:18;7.60;;;4.20;;
63882;SDS011;50047;50.596;30.466;2023-07-20T04:05:47;7.60;;;3.40;;
63882;SDS011;50047;50.596;30.466;2023-07-20T04:08:14;6.90;;;3.50;;
63882;SDS011;50047;50.596;30.466;2023-07-20T04:10:44;6.00;;;3.20;;
63882;SDS011;50047;50.596;30.466;2023-07-20T04:13:11;7.90;;;3.50;;
63882;SDS011;50047;50.596;30.466;2023-07-20T04:15:42;8.60;;;3.20;;
63882;SDS011;50047;50.596;30.466;2023-07-20T04:18:10;8.10;;;3.30;;
63882;SDS011;50047;50.596;30.466;2023-07-20T04:20:37;6.70;;;3.20;;
63882;SDS011;50047;50.596;30.466;2023-07-20T04:23:04;6.90;;;3.40;;
63882;SDS011;50047;50.596;30.466;2023-07-20T04:25:33;4.90;;;2.90;;
63882;SDS011;50047;50.596;30.466;2023-07-20T04:28:06;5.80;;;2.90;;
63882;SDS011;50047;50.596;30.466;2023-07-20T04:30:39;4.60;;;2.70;;
63882;SDS011;50047;50.596;30.466;2023-07-20T04:33:06;7.50;;;3.10;;
63882;SDS011;50047;50.596;30.466;2023-07-20T04:38:20;5.40;;;2.90;;
63882;SDS011;50047;50.596;30.466;2023-07-20T04:40:54;6.20;;;3.20;;
63882;SDS011;50047;50.596;30.466;2023-07-20T04:43:22;7.10;;;3.10;;
63882;SDS011;50047;50.596;30.466;2023-07-20T04:45:49;5.60;;;3.40;;
63882;SDS011;50047;50.596;30.466;2023-07-20T04:48:16;6.60;;;3.10;;
63882;SDS011;50047;50.596;30.466;2023-07-20T04:50:49;6.10;;;3.50;;
63882;SDS011;50047;50.596;30.466;2023-07-20T04:53:17;8.40;;;2.80;;
63882;SDS011;50047;50.596;30.466;2023-07-20T04:55:48;9.00;;;2.70;;
63882;SDS011;50047;50.596;30.466;2023-07-20T04:58:20;7.80;;;3.00;;
63882;SDS011;50047;50.596;30.466;2023-07-20T05:00:48;5.00;;;2.70;;
63882;SDS011;50047;50.596;30.466;2023-07-20T05:05:49;11.60;;;2.80;;
63882;SDS011;50047;50.596;30.466;2023-07-20T05:08:17;4.30;;;2.30;;
63882;SDS011;50047;50.596;30.466;2023-07-20T05:10:45;4.60;;;2.30;;
63882;SDS011;50047;50.596;30.466;2023-07-20T05:13:12;6.80;;;2.50;;
63882;SDS011;50047;50.596;30.466;2023-07-20T05:15:40;4.00;;;2.60;;
63882;SDS011;50047;50.596;30.466;2023-07-20T05:18:10;6.40;;;2.50;;
63882;SDS011;50047;50.596;30.466;2023-07-20T05:20:38;5.40;;;3.10;;
63882;SDS011;50047;50.596;30.466;2023-07-20T05:23:05;7.10;;;2.60;;
63882;SDS011;50047;50.596;30.466;2023-07-20T05:25:34;5.90;;;2.30;;
63882;SDS011;50047;50.596;30.466;2023-07-20T05:28:01;7.10;;;2.70;;
63882;SDS011;50047;50.596;30.466;2023-07-20T05:30:29;3.70;;;2.30;;
63882;SDS011;50047;50.596;30.466;2023-07-20T05:32:56;9.20;;;2.80;;
63882;SDS011;50047;50.596;30.466;2023-07-20T05:35:23;5.90;;;3.20;;
63882;SDS011;50047;50.596;30.466;2023-07-20T05:37:50;7.70;;;2.70;;
63882;SDS011;50047;50.596;30.466;2023-07-20T05:40:16;7.70;;;2.80;;
63882;SDS011;50047;50.596;30.466;2023-07-20T05:42:47;12.20;;;2.60;;
63882;SDS011;50047;50.596;30.466;2023-07-20T05:45:18;6.80;;;3.30;;
63882;SDS011;50047;50.596;30.466;2023-07-20T05:47:45;8.80;;;3.60;;
63882;SDS011;50047;50.596;30.466;2023-07-20T05:50:13;11.00;;;6.30;;
63882;SDS011;50047;50.596;30.466;2023-07-20T05:52:40;10.80;;;5.00;;
63882;SDS011;50047;50.596;30.466;2023-07-20T05:55:07;8.90;;;4.20;;
63882;SDS011;50047;50.596;30.466;2023-07-20T05:57:34;7.20;;;4.20;;
63882;SDS011;50047;50.596;30.466;2023-07-20T06:00:18;4.70;;;2.60;;
63882;SDS011;50047;50.596;30.466;2023-07-20T06:02:45;6.90;;;2.70;;
63882;SDS011;50047;50.596;30.466;2023-07-20T06:05:14;4.00;;;2.40;;
63882;SDS011;50047;50.596;30.466;2023-07-20T06:07:43;4.30;;;2.50;;
63882;SDS011;50047;50.596;30.466;2023-07-20T06:10:10;7.50;;;2.20;;
63882;SDS011;50047;50.596;30.466;2023-07-20T06:12:39;7.00;;;2.00;;
63882;SDS011;50047;50.596;30.466;2023-07-20T06:15:16;4.00;;;2.40;;
63882;SDS011;50047;50.596;30.466;2023-07-20T06:17:53;7.10;;;2.10;;
63882;SDS011;50047;50.596;30.466;2023-07-20T06:20:22;6.00;;;2.70;;
63882;SDS011;50047;50.596;30.466;2023-07-20T06:22:49;3.80;;;2.20;;
63882;SDS011;50047;50.596;30.466;2023-07-20T06:25:17;4.90;;;2.10;;
63882;SDS011;50047;50.596;30.466;2023-07-20T06:27:44;4.90;;;2.10;;
63882;SDS011;50047;50.596;30.466;2023-07-20T06:30:11;7.20;;;2.50;;
63882;SDS011;50047;50.596;30.466;2023-07-20T06:32:39;3.60;;;2.10;;
63882;SDS011;50047;50.596;30.466;2023-07-20T06:35:07;4.10;;;1.60;;
63882;SDS011;50047;50.596;30.466;2023-07-20T06:37:35;4.00;;;1.70;;
63882;SDS011;50047;50.596;30.466;2023-07-20T06:40:02;5.70;;;1.70;;
63882;SDS011;50047;50.596;30.466;2023-07-20T06:42:35;4.20;;;1.40;;
63882;SDS011;50047;50.596;30.466;2023-07-20T06:45:06;4.40;;;1.70;;
63882;SDS011;50047;50.596;30.466;2023-07-20T06:47:33;3.30;;;2.10;;
63882;SDS011;50047;50.596;30.466;2023-07-20T06:50:00;5.60;;;1.80;;
63882;SDS011;50047;50.596;30.466;2023-07-20T06:52:27;5.70;;;1.80;;
63882;SDS011;50047;50.596;30.466;2023-07-20T06:54:55;5.40;;;1.60;;
63882;SDS011;50047;50.596;30.466;2023-07-20T06:57:27;4.40;;;1.40;;
63882;SDS011;50047;50.596;30.466;2023-07-20T06:59:55;3.60;;;1.50;;
63882;SDS011;50047;50.596;30.466;2023-07-20T07:02:22;3.60;;;1.50;;
63882;SDS011;50047;50.596;30.466;2023-07-20T07:04:49;2.70;;;1.30;;
63882;SDS011;50047;50.596;30.466;2023-07-20T07:07:27;3.40;;;1.60;;
63882;SDS011;50047;50.596;30.466;2023-07-20T07:09:54;4.40;;;1.40;;
63882;SDS011;50047;50.596;30.466;2023-07-20T07:12:21;1.70;;;1.10;;
63882;SDS011;50047;50.596;30.466;2023-07-20T07:14:48;6.60;;;1.40;;
63882;SDS011;50047;50.596;30.466;2023-07-20T07:17:16;6.10;;;1.80;;
63882;SDS011;50047;50.596;30.466;2023-07-20T07:19:46;9.90;;;1.80;;
63882;SDS011;50047;50.596;30.466;2023-07-20T07:22:16;9.80;;;2.30;;
63882;SDS011;50047;50.596;30.466;2023-07-20T07:24:43;10.40;;;2.10;;
63882;SDS011;50047;50.596;30.466;2023-07-20T07:27:10;10.30;;;2.20;;
63882;SDS011;50047;50.596;30.466;2023-07-20T07:29:38;6.80;;;1.90;;
63882;SDS011;50047;50.596;30.466;2023-07-20T07:32:06;11.30;;;2.40;;
63882;SDS011;50047;50.596;30.466;2023-07-20T07:34:33;12.90;;;2.60;;
63882;SDS011;50047;50.596;30.466;2023-07-20T07:37:01;11.30;;;2.20;;
63882;SDS011;50047;50.596;30.466;2023-07-20T07:39:28;10.00;;;2.10;;
63882;SDS011;50047;50.596;30.466;2023-07-20T07:42:02;5.50;;;2.30;;
63882;SDS011;50047;50.596;30.466;2023-07-20T07:44:29;6.20;;;2.40;;
63882;SDS011;50047;50.596;30.466;2023-07-20T07:46:57;13.90;;;2.20;;
63882;SDS011;50047;50.596;30.466;2023-07-20T07:49:24;8.40;;;2.00;;
63882;SDS011;50047;50.596;30.466;2023-07-20T07:51:51;8.30;;;2.30;;
63882;SDS011;50047;50.596;30.466;2023-07-20T07:54:18;7.70;;;2.10;;
63882;SDS011;50047;50.596;30.466;2023-07-20T07:56:45;4.80;;;1.60;;
63882;SDS011;50047;50.596;30.466;2023-07-20T07:59:13;6.90;;;2.10;;
63882;SDS011;50047;50.596;30.466;2023-07-20T08:01:39;3.80;;;1.50;;
63882;SDS011;50047;50.596;30.466;2023-07-20T08:04:06;7.00;;;1.90;;
63882;SDS011;50047;50.596;30.466;2023-07-20T08:06:35;4.90;;;2.00;;
63882;SDS011;50047;50.596;30.466;2023-07-20T08:09:01;20.80;;;2.10;;
63882;SDS011;50047;50.596;30.466;2023-07-20T08:11:29;11.20;;;1.70;;
63882;SDS011;50047;50.596;30.466;2023-07-20T08:13:57;8.30;;;1.90;;
63882;SDS011;50047;50.596;30.466;2023-07-20T08:16:24;3.00;;;1.40;;
63882;SDS011;50047;50.596;30.466;2023-07-20T08:18:52;3.20;;;1.50;;
63882;SDS011;50047;50.596;30.466;2023-07-20T08:21:19;8.70;;;1.60;;
63882;SDS011;50047;50.596;30.466;2023-07-20T08:23:46;5.90;;;1.70;;
63882;SDS011;50047;50.596;30.466;2023-07-20T08:26:13;5.30;;;2.10;;
63882;SDS011;50047;50.596;30.466;2023-07-20T08:28:39;2.20;;;1.40;;
63882;SDS011;50047;50.596;30.466;2023-07-20T08:31:06;8.40;;;1.40;;
63882;SDS011;50047;50.596;30.466;2023-07-20T08:33:34;5.40;;;1.70;;
63882;SDS011;50047;50.596;30.466;2023-07-20T08:36:01;6.60;;;1.40;;
63882;SDS011;50047;50.596;30.466;2023-07-20T08:38:30;3.70;;;1.70;;
63882;SDS011;50047;50.596;30.466;2023-07-20T08:40:57;5.90;;;1.70;;
63882;SDS011;50047;50.596;30.466;2023-07-20T08:43:26;5.60;;;1.50;;
63882;SDS011;50047;50.596;30.466;2023-07-20T08:45:55;3.40;;;1.60;;
63882;SDS011;50047;50.596;30.466;2023-07-20T08:48:23;6.10;;;1.40;;
63882;SDS011;50047;50.596;30.466;2023-07-20T08:50:51;4.30;;;1.40;;
63882;SDS011;50047;50.596;30.466;2023-07-20T08:53:20;3.30;;;1.50;;
63882;SDS011;50047;50.596;30.466;2023-07-20T08:55:48;6.90;;;1.40;;
63882;SDS011;50047;50.596;30.466;2023-07-20T08:58:18;4.90;;;1.70;;
63882;SDS011;50047;50.596;30.466;2023-07-20T09:00:46;5.70;;;1.60;;
63882;SDS011;50047;50.596;30.466;2023-07-20T09:03:17;3.30;;;1.50;;
63882;SDS011;50047;50.596;30.466;2023-07-20T09:05:46;4.10;;;1.50;;
63882;SDS011;50047;50.596;30.466;2023-07-20T09:08:13;2.80;;;1.50;;
63882;SDS011;50047;50.596;30.466;2023-07-20T09:10:40;3.80;;;1.60;;
63882;SDS011;50047;50.596;30.466;2023-07-20T09:13:07;4.90;;;1.50;;
63882;SDS011;50047;50.596;30.466;2023-07-20T09:15:36;2.90;;;1.50;;
63882;SDS011;50047;50.596;30.466;2023-07-20T09:18:04;4.00;;;1.60;;
63882;SDS011;50047;50.596;30.466;2023-07-20T09:20:31;3.10;;;1.40;;
63882;SDS011;50047;50.596;30.466;2023-07-20T09:23:00;8.40;;;1.80;;
63882;SDS011;50047;50.596;30.466;2023-07-20T09:25:34;4.80;;;1.70;;
63882;SDS011;50047;50.596;30.466;2023-07-20T09:28:04;6.50;;;2.00;;
63882;SDS011;50047;50.596;30.466;2023-07-20T09:30:33;4.30;;;1.60;;
63882;SDS011;50047;50.596;30.466;2023-07-20T09:33:00;5.40;;;1.70;;
63882;SDS011;50047;50.596;30.466;2023-07-20T09:35:28;4.10;;;1.80;;
63882;SDS011;50047;50.596;30.466;2023-07-20T09:38:08;3.10;;;1.60;;
63882;SDS011;50047;50.596;30.466;2023-07-20T09:40:38;3.80;;;1.50;;
63882;SDS011;50047;50.596;30.466;2023-07-20T09:43:10;3.30;;;1.30;;
63882;SDS011;50047;50.596;30.466;2023-07-20T09:45:40;2.90;;;1.50;;
63882;SDS011;50047;50.596;30.466;2023-07-20T09:50:43;5.40;;;1.50;;
63882;SDS011;50047;50.596;30.466;2023-07-20T09:53:17;9.20;;;1.60;;
63882;SDS011;50047;50.596;30.466;2023-07-20T09:55:45;4.10;;;2.50;;
63882;SDS011;50047;50.596;30.466;2023-07-20T09:58:14;5.10;;;1.60;;
63882;SDS011;50047;50.596;30.466;2023-07-20T10:00:43;6.10;;;1.80;;
63882;SDS011;50047;50.596;30.466;2023-07-20T10:03:19;4.60;;;1.60;;
63882;SDS011;50047;50.596;30.466;2023-07-20T10:05:54;7.60;;;1.90;;
63882;SDS011;50047;50.596;30.466;2023-07-20T10:08:40;3.80;;;1.50;;
63882;SDS011;50047;50.596;30.466;2023-07-20T10:13:39;2.50;;;1.70;;
63882;SDS011;50047;50.596;30.466;2023-07-20T10:16:14;5.40;;;1.50;;
63882;SDS011;50047;50.596;30.466;2023-07-20T10:21:48;1.70;;;1.30;;
63882;SDS011;50047;50.596;30.466;2023-07-20T10:24:25;2.40;;;1.60;;
63882;SDS011;50047;50.596;30.466;2023-07-20T10:26:54;2.90;;;1.50;;
63882;SDS011;50047;50.596;30.466;2023-07-20T10:29:22;3.10;;;1.40;;
63882;SDS011;50047;50.596;30.466;2023-07-20T10:31:51;2.30;;;1.60;;
63882;SDS011;50047;50.596;30.466;2023-07-20T10:34:22;5.50;;;2.50;;
63882;SDS011;50047;50.596;30.466;2023-07-20T10:36:50;5.40;;;2.00;;
63882;SDS011;50047;50.596;30.466;2023-07-20T10:39:22;5.30;;;1.60;;
63882;SDS011;50047;50.596;30.466;2023-07-20T10:41:59;3.60;;;1.90;;
63882;SDS011;50047;50.596;30.466;2023-07-20T10:44:30;4.50;;;1.70;;
63882;SDS011;50047;50.596;30.466;2023-07-20T10:46:59;6.00;;;1.90;;
63882;SDS011;50047;50.596;30.466;2023-07-20T10:49:27;5.20;;;1.40;;
63882;SDS011;50047;50.596;30.466;2023-07-20T10:52:00;8.90;;;1.80;;
63882;SDS011;50047;50.596;30.466;2023-07-20T11:00:11;7.60;;;1.50;;
63882;SDS011;50047;50.596;30.466;2023-07-20T11:02:46;7.10;;;1.60;;
63882;SDS011;50047;50.596;30.466;2023-07-20T11:08:12;5.50;;;1.50;;
63882;SDS011;50047;50.596;30.466;2023-07-20T11:10:39;3.30;;;1.60;;
63882;SDS011;50047;50.596;30.466;2023-07-20T11:13:20;7.80;;;1.70;;
63882;SDS011;50047;50.596;30.466;2023-07-20T11:18:27;4.40;;;1.70;;
63882;SDS011;50047;50.596;30.466;2023-07-20T11:20:55;2.80;;;1.70;;
63882;SDS011;50047;50.596;30.466;2023-07-20T11:23:22;6.60;;;1.60;;
63882;SDS011;50047;50.596;30.466;2023-07-20T11:25:50;5.40;;;1.70;;
63882;SDS011;50047;50.596;30.466;2023-07-20T11:28:17;5.20;;;1.50;;
63882;SDS011;50047;50.596;30.466;2023-07-20T11:30:44;3.40;;;1.80;;
63882;SDS011;50047;50.596;30.466;2023-07-20T11:33:11;3.40;;;1.70;;
63882;SDS011;50047;50.596;30.466;2023-07-20T11:35:44;5.50;;;1.90;;
63882;SDS011;50047;50.596;30.466;2023-07-20T11:38:17;3.80;;;1.80;;
63882;SDS011;50047;50.596;30.466;2023-07-20T11:40:45;2.30;;;1.50;;
63882;SDS011;50047;50.596;30.466;2023-07-20T11:43:13;5.30;;;1.70;;
63882;SDS011;50047;50.596;30.466;2023-07-20T11:45:43;3.50;;;1.90;;
63882;SDS011;50047;50.596;30.466;2023-07-20T11:48:15;3.00;;;2.00;;
63882;SDS011;50047;50.596;30.466;2023-07-20T11:50:43;3.90;;;1.50;;
63882;SDS011;50047;50.596;30.466;2023-07-20T11:53:11;5.40;;;1.70;;
63882;SDS011;50047;50.596;30.466;2023-07-20T11:55:39;2.60;;;1.50;;
63882;SDS011;50047;50.596;30.466;2023-07-20T11:58:08;2.30;;;1.40;;
63882;SDS011;50047;50.596;30.466;2023-07-20T12:00:37;4.20;;;1.60;;
63882;SDS011;50047;50.596;30.466;2023-07-20T12:03:06;2.40;;;1.50;;
63882;SDS011;50047;50.596;30.466;2023-07-20T12:05:34;2.60;;;1.60;;
63882;SDS011;50047;50.596;30.466;2023-07-20T12:08:22;4.60;;;2.20;;
63882;SDS011;50047;50.596;30.466;2023-07-20T12:10:50;2.50;;;2.30;;
63882;SDS011;50047;50.596;30.466;2023-07-20T12:13:17;6.10;;;2.20;;
63882;SDS011;50047;50.596;30.466;2023-07-20T12:15:43;5.00;;;2.40;;
63882;SDS011;50047;50.596;30.466;2023-07-20T12:18:11;3.10;;;1.70;;
63882;SDS011;50047;50.596;30.466;2023-07-20T12:20:38;4.00;;;1.50;;
63882;SDS011;50047;50.596;30.466;2023-07-20T12:23:12;6.10;;;2.20;;
63882;SDS011;50047;50.596;30.466;2023-07-20T12:25:41;5.50;;;2.40;;
63882;SDS011;50047;50.596;30.466;2023-07-20T12:28:10;4.80;;;2.00;;
63882;SDS011;50047;50.596;30.466;2023-07-20T12:30:39;4.70;;;1.60;;
63882;SDS011;50047;50.596;30.466;2023-07-20T12:33:06;4.80;;;1.80;;
63882;SDS011;50047;50.596;30.466;2023-07-20T12:35:35;3.00;;;1.70;;
63882;SDS011;50047;50.596;30.466;2023-07-20T12:38:02;3.80;;;1.50;;
63882;SDS011;50047;50.596;30.466;2023-07-20T12:40:29;2.00;;;1.50;;
63882;SDS011;50047;50.596;30.466;2023-07-20T12:42:57;5.20;;;1.50;;
63882;SDS011;50047;50.596;30.466;2023-07-20T12:45:25;8.80;;;2.20;;
63882;SDS011;50047;50.596;30.466;2023-07-20T12:47:52;7.80;;;1.60;;
63882;SDS011;50047;50.596;30.466;2023-07-20T12:50:20;2.80;;;1.60;;
63882;SDS011;50047;50.596;30.466;2023-07-20T12:52:47;5.60;;;1.60;;
63882;SDS011;50047;50.596;30.466;2023-07-20T12:55:14;2.90;;;1.40;;
63882;SDS011;50047;50.596;30.466;2023-07-20T12:57:45;7.80;;;2.10;;
63882;SDS011;50047;50.596;30.466;2023-07-20T13:00:13;4.70;;;1.80;;
63882;SDS011;50047;50.596;30.466;2023-07-20T13:02:42;2.80;;;1.80;;
63882;SDS011;50047;50.596;30.466;2023-07-20T13:05:10;2.70;;;1.50;;
63882;SDS011;50047;50.596;30.466;2023-07-20T13:07:38;7.20;;;2.50;;
63882;SDS011;50047;50.596;30.466;2023-07-20T13:10:10;5.60;;;3.30;;
63882;SDS011;50047;50.596;30.466;2023-07-20T13:12:38;6.20;;;3.10;;
63882;SDS011;50047;50.596;30.466;2023-07-20T13:15:06;5.00;;;2.30;;
63882;SDS011;50047;50.596;30.466;2023-07-20T13:20:08;4.90;;;2.10;;
63882;SDS011;50047;50.596;30.466;2023-07-20T13:22:38;7.90;;;2.60;;
63882;SDS011;50047;50.596;30.466;2023-07-20T13:25:06;5.10;;;2.80;;
63882;SDS011;50047;50.596;30.466;2023-07-20T13:27:34;3.60;;;2.20;;
63882;SDS011;50047;50.596;30.466;2023-07-20T13:30:06;5.10;;;2.80;;
63882;SDS011;50047;50.596;30.466;2023-07-20T13:32:36;5.10;;;2.40;;
63882;SDS011;50047;50.596;30.466;2023-07-20T13:35:05;3.70;;;2.40;;
63882;SDS011;50047;50.596;30.466;2023-07-20T13:37:33;4.90;;;1.80;;
63882;SDS011;50047;50.596;30.466;2023-07-20T13:40:00;4.00;;;1.60;;
63882;SDS011;50047;50.596;30.466;2023-07-20T13:42:27;2.90;;;2.20;;
63882;SDS011;50047;50.596;30.466;2023-07-20T13:44:54;2.20;;;1.50;;
63882;SDS011;50047;50.596;30.466;2023-07-20T13:47:22;4.90;;;1.70;;
63882;SDS011;50047;50.596;30.466;2023-07-20T13:49:49;5.40;;;2.10;;
63882;SDS011;50047;50.596;30.466;2023-07-20T13:52:31;3.10;;;1.60;;
63882;SDS011;50047;50.596;30.466;2023-07-20T13:55:01;2.40;;;1.40;;
63882;SDS011;50047;50.596;30.466;2023-07-20T13:57:32;4.10;;;1.50;;
63882;SDS011;50047;50.596;30.466;2023-07-20T14:00:02;5.60;;;2.50;;
63882;SDS011;50047;50.596;30.466;2023-07-20T14:02:38;5.90;;;3.40;;
63882;SDS011;50047;50.596;30.466;2023-07-20T14:05:08;6.00;;;2.60;;
63882;SDS011;50047;50.596;30.466;2023-07-20T14:07:41;2.90;;;1.70;;
63882;SDS011;50047;50.596;30.466;2023-07-20T14:10:10;5.80;;;2.10;;
63882;SDS011;50047;50.596;30.466;2023-07-20T14:12:40;8.20;;;3.40;;
63882;SDS011;50047;50.596;30.466;2023-07-20T14:15:07;6.90;;;3.00;;
63882;SDS011;50047;50.596;30.466;2023-07-20T14:17:55;4.90;;;2.80;;
63882;SDS011;50047;50.596;30.466;2023-07-20T14:20:23;6.60;;;3.60;;
63882;SDS011;50047;50.596;30.466;2023-07-20T14:22:50;5.50;;;3.50;;
63882;SDS011;50047;50.596;30.466;2023-07-20T14:25:18;6.40;;;3.40;;
63882;SDS011;50047;50.596;30.466;2023-07-20T14:27:46;6.90;;;2.80;;
63882;SDS011;50047;50.596;30.466;2023-07-20T14:30:13;5.80;;;1.90;;
63882;SDS011;50047;50.596;30.466;2023-07-20T14:32:41;4.10;;;1.60;;
63882;SDS011;50047;50.596;30.466;2023-07-20T14:35:10;3.60;;;1.90;;
63882;SDS011;50047;50.596;30.466;2023-07-20T14:37:37;7.30;;;1.80;;
63882;SDS011;50047;50.596;30.466;2023-07-20T14:40:04;4.70;;;1.90;;
63882;SDS011;50047;50.596;30.466;2023-07-20T14:42:35;7.10;;;2.10;;
63882;SDS011;50047;50.596;30.466;2023-07-20T14:45:02;6.40;;;2.20;;
63882;SDS011;50047;50.596;30.466;2023-07-20T14:47:29;6.50;;;1.90;;
63882;SDS011;50047;50.596;30.466;2023-07-20T14:49:59;3.70;;;1.70;;
63882;SDS011;50047;50.596;30.466;2023-07-20T14:52:26;6.80;;;1.90;;
63882;SDS011;50047;50.596;30.466;2023-07-20T14:54:55;3.70;;;1.90;;
63882;SDS011;50047;50.596;30.466;2023-07-20T14:57:23;4.00;;;2.20;;
63882;SDS011;50047;50.596;30.466;2023-07-20T14:59:50;3.70;;;2.50;;
63882;SDS011;50047;50.596;30.466;2023-07-20T15:02:17;4.10;;;2.00;;
63882;SDS011;50047;50.596;30.466;2023-07-20T15:04:47;3.30;;;2.80;;
63882;SDS011;50047;50.596;30.466;2023-07-20T15:07:18;7.60;;;3.40;;
63882;SDS011;50047;50.596;30.466;2023-07-20T15:09:46;8.00;;;3.40;;
63882;SDS011;50047;50.596;30.466;2023-07-20T15:12:14;5.00;;;3.50;;
63882;SDS011;50047;50.596;30.466;2023-07-20T15:14:42;3.60;;;3.20;;
63882;SDS011;50047;50.596;30.466;2023-07-20T15:17:10;4.50;;;2.80;;
63882;SDS011;50047;50.596;30.466;2023-07-20T15:19:37;6.20;;;3.50;;